<?xml version="1.0" encoding="UTF-8" standalone="no" ?>
<gpx xmlns="http://www.topografix.com/GPX/1/1" xmlns:xsi="http://www.w3.org/2001/XMLSchema-instance" xsi:schemaLocation="http://www.topografix.com/GPX/1/1 http://www.topografix.com/GPX/1/1/gpx.xsd" version="1.1" creator="VisuGPX - https://www.visugpx.com">
  <metadata>
    <name>Cantal</name>
  </metadata>
  <trk>
    <name><![CDATA[Vous suivez Aspre roc Hozières (Cantal)]]></name>
    <extensions>
      <line xmlns="http://www.topografix.com/GPX/gpx_style/0/2">
        <color>0000FF</color>
        <width>4</width>
      </line>
    </extensions>
    <trkseg>
      <trkpt lat="45.11671" lon="2.63539">
        <ele>1379</ele>
        <time>2020-09-14T15:36:23Z</time>
      </trkpt>
      <trkpt lat="45.11664" lon="2.63548">
        <ele>1376</ele>
        <time>2020-09-14T15:36:38Z</time>
      </trkpt>
      <trkpt lat="45.1166" lon="2.63558">
        <ele>1378</ele>
        <time>2020-09-14T15:36:48Z</time>
      </trkpt>
      <trkpt lat="45.1166" lon="2.6357">
        <ele>1380</ele>
        <time>2020-09-14T15:37:02Z</time>
      </trkpt>
      <trkpt lat="45.11664" lon="2.63581">
        <ele>1381</ele>
        <time>2020-09-14T15:37:16Z</time>
      </trkpt>
      <trkpt lat="45.11661" lon="2.63592">
        <ele>1381</ele>
        <time>2020-09-14T15:37:30Z</time>
      </trkpt>
      <trkpt lat="45.11663" lon="2.63603">
        <ele>1381</ele>
        <time>2020-09-14T15:37:42Z</time>
      </trkpt>
      <trkpt lat="45.1166" lon="2.63615">
        <ele>1383</ele>
        <time>2020-09-14T15:38:09Z</time>
      </trkpt>
      <trkpt lat="45.11656" lon="2.63626">
        <ele>1390</ele>
        <time>2020-09-14T15:38:28Z</time>
      </trkpt>
      <trkpt lat="45.11655" lon="2.63638">
        <ele>1392</ele>
        <time>2020-09-14T15:38:41Z</time>
      </trkpt>
      <trkpt lat="45.11657" lon="2.6365">
        <ele>1394</ele>
        <time>2020-09-14T15:39:01Z</time>
      </trkpt>
      <trkpt lat="45.11657" lon="2.63662">
        <ele>1396</ele>
        <time>2020-09-14T15:39:15Z</time>
      </trkpt>
      <trkpt lat="45.1166" lon="2.63673">
        <ele>1398</ele>
        <time>2020-09-14T15:39:36Z</time>
      </trkpt>
      <trkpt lat="45.11657" lon="2.63684">
        <ele>1398</ele>
        <time>2020-09-14T15:39:54Z</time>
      </trkpt>
      <trkpt lat="45.11653" lon="2.63695">
        <ele>1401</ele>
        <time>2020-09-14T15:40:06Z</time>
      </trkpt>
      <trkpt lat="45.11651" lon="2.63707">
        <ele>1402</ele>
        <time>2020-09-14T15:40:19Z</time>
      </trkpt>
      <trkpt lat="45.11648" lon="2.63719">
        <ele>1401</ele>
        <time>2020-09-14T15:40:37Z</time>
      </trkpt>
      <trkpt lat="45.11645" lon="2.63731">
        <ele>1405</ele>
        <time>2020-09-14T15:40:53Z</time>
      </trkpt>
      <trkpt lat="45.11641" lon="2.63742">
        <ele>1406</ele>
        <time>2020-09-14T15:41:12Z</time>
      </trkpt>
      <trkpt lat="45.11639" lon="2.63753">
        <ele>1408</ele>
        <time>2020-09-14T15:41:30Z</time>
      </trkpt>
      <trkpt lat="45.11638" lon="2.63765">
        <ele>1409</ele>
        <time>2020-09-14T15:41:53Z</time>
      </trkpt>
      <trkpt lat="45.11635" lon="2.63776">
        <ele>1412</ele>
        <time>2020-09-14T15:42:19Z</time>
      </trkpt>
      <trkpt lat="45.1163" lon="2.63787">
        <ele>1414</ele>
        <time>2020-09-14T15:42:43Z</time>
      </trkpt>
      <trkpt lat="45.11629" lon="2.63791">
        <ele>1417</ele>
        <time>2020-09-14T15:42:52Z</time>
      </trkpt>
      <trkpt lat="45.11629" lon="2.63791">
        <ele>1417</ele>
        <time>2020-09-14T15:42:53Z</time>
      </trkpt>
      <trkpt lat="45.11627" lon="2.63789">
        <ele>1416</ele>
        <time>2020-09-14T15:45:14Z</time>
      </trkpt>
      <trkpt lat="45.11623" lon="2.63799">
        <ele>1417</ele>
        <time>2020-09-14T15:45:28Z</time>
      </trkpt>
      <trkpt lat="45.11618" lon="2.63809">
        <ele>1417</ele>
        <time>2020-09-14T15:45:39Z</time>
      </trkpt>
      <trkpt lat="45.11615" lon="2.6382">
        <ele>1418</ele>
        <time>2020-09-14T15:45:58Z</time>
      </trkpt>
      <trkpt lat="45.1161" lon="2.6383">
        <ele>1420</ele>
        <time>2020-09-14T15:46:19Z</time>
      </trkpt>
      <trkpt lat="45.11604" lon="2.63838">
        <ele>1424</ele>
        <time>2020-09-14T15:46:44Z</time>
      </trkpt>
      <trkpt lat="45.11599" lon="2.63847">
        <ele>1428</ele>
        <time>2020-09-14T15:47:06Z</time>
      </trkpt>
      <trkpt lat="45.11599" lon="2.63849">
        <ele>1431</ele>
        <time>2020-09-14T15:47:24Z</time>
      </trkpt>
      <trkpt lat="45.11599" lon="2.63849">
        <ele>1431</ele>
        <time>2020-09-14T15:47:25Z</time>
      </trkpt>
      <trkpt lat="45.11598" lon="2.63849">
        <ele>1432</ele>
        <time>2020-09-14T15:47:47Z</time>
      </trkpt>
      <trkpt lat="45.11594" lon="2.63861">
        <ele>1431</ele>
        <time>2020-09-14T15:48:10Z</time>
      </trkpt>
      <trkpt lat="45.11588" lon="2.63869">
        <ele>1435</ele>
        <time>2020-09-14T15:48:31Z</time>
      </trkpt>
      <trkpt lat="45.11585" lon="2.63871">
        <ele>1437</ele>
        <time>2020-09-14T15:48:42Z</time>
      </trkpt>
      <trkpt lat="45.11585" lon="2.63871">
        <ele>1437</ele>
        <time>2020-09-14T15:48:43Z</time>
      </trkpt>
      <trkpt lat="45.11584" lon="2.63871">
        <ele>1437</ele>
        <time>2020-09-14T15:49:39Z</time>
      </trkpt>
      <trkpt lat="45.11579" lon="2.63881">
        <ele>1439</ele>
        <time>2020-09-14T15:50:02Z</time>
      </trkpt>
      <trkpt lat="45.11575" lon="2.63891">
        <ele>1445</ele>
        <time>2020-09-14T15:50:18Z</time>
      </trkpt>
      <trkpt lat="45.11569" lon="2.63897">
        <ele>1448</ele>
        <time>2020-09-14T15:50:39Z</time>
      </trkpt>
      <trkpt lat="45.11569" lon="2.63897">
        <ele>1448</ele>
        <time>2020-09-14T15:50:40Z</time>
      </trkpt>
      <trkpt lat="45.11569" lon="2.63896">
        <ele>1446</ele>
        <time>2020-09-14T15:52:48Z</time>
      </trkpt>
      <trkpt lat="45.11563" lon="2.63905">
        <ele>1449</ele>
        <time>2020-09-14T15:53:07Z</time>
      </trkpt>
      <trkpt lat="45.11557" lon="2.63914">
        <ele>1451</ele>
        <time>2020-09-14T15:53:24Z</time>
      </trkpt>
      <trkpt lat="45.11555" lon="2.6392">
        <ele>1454</ele>
        <time>2020-09-14T15:53:36Z</time>
      </trkpt>
      <trkpt lat="45.11555" lon="2.6392">
        <ele>1454</ele>
        <time>2020-09-14T15:53:36Z</time>
      </trkpt>
      <trkpt lat="45.11555" lon="2.6392">
        <ele>1455</ele>
        <time>2020-09-14T15:56:03Z</time>
      </trkpt>
      <trkpt lat="45.11552" lon="2.63931">
        <ele>1458</ele>
        <time>2020-09-14T15:56:23Z</time>
      </trkpt>
      <trkpt lat="45.11547" lon="2.63941">
        <ele>1464</ele>
        <time>2020-09-14T15:56:45Z</time>
      </trkpt>
      <trkpt lat="45.11544" lon="2.63946">
        <ele>1466</ele>
        <time>2020-09-14T15:56:55Z</time>
      </trkpt>
      <trkpt lat="45.11544" lon="2.63946">
        <ele>1466</ele>
        <time>2020-09-14T15:56:56Z</time>
      </trkpt>
      <trkpt lat="45.11546" lon="2.63946">
        <ele>1467</ele>
        <time>2020-09-14T15:57:56Z</time>
      </trkpt>
      <trkpt lat="45.11547" lon="2.63958">
        <ele>1470</ele>
        <time>2020-09-14T15:58:19Z</time>
      </trkpt>
      <trkpt lat="45.11545" lon="2.63971">
        <ele>1479</ele>
        <time>2020-09-14T15:58:39Z</time>
      </trkpt>
      <trkpt lat="45.11545" lon="2.63971">
        <ele>1479</ele>
        <time>2020-09-14T15:58:40Z</time>
      </trkpt>
      <trkpt lat="45.11544" lon="2.63971">
        <ele>1477</ele>
        <time>2020-09-14T15:59:37Z</time>
      </trkpt>
      <trkpt lat="45.11543" lon="2.63983">
        <ele>1480</ele>
        <time>2020-09-14T15:59:58Z</time>
      </trkpt>
      <trkpt lat="45.11541" lon="2.63995">
        <ele>1483</ele>
        <time>2020-09-14T16:00:21Z</time>
      </trkpt>
      <trkpt lat="45.11539" lon="2.63996">
        <ele>1482</ele>
        <time>2020-09-14T16:00:23Z</time>
      </trkpt>
      <trkpt lat="45.11539" lon="2.63996">
        <ele>1482</ele>
        <time>2020-09-14T16:00:23Z</time>
      </trkpt>
      <trkpt lat="45.11537" lon="2.63997">
        <ele>1486</ele>
        <time>2020-09-14T16:01:23Z</time>
      </trkpt>
      <trkpt lat="45.11537" lon="2.64009">
        <ele>1487</ele>
        <time>2020-09-14T16:01:46Z</time>
      </trkpt>
      <trkpt lat="45.1154" lon="2.64021">
        <ele>1490</ele>
        <time>2020-09-14T16:02:02Z</time>
      </trkpt>
      <trkpt lat="45.11539" lon="2.64028">
        <ele>1493</ele>
        <time>2020-09-14T16:02:16Z</time>
      </trkpt>
      <trkpt lat="45.11539" lon="2.64028">
        <ele>1493</ele>
        <time>2020-09-14T16:02:17Z</time>
      </trkpt>
      <trkpt lat="45.11539" lon="2.64028">
        <ele>1493</ele>
        <time>2020-09-14T16:03:11Z</time>
      </trkpt>
      <trkpt lat="45.11535" lon="2.64039">
        <ele>1498</ele>
        <time>2020-09-14T16:03:40Z</time>
      </trkpt>
      <trkpt lat="45.11532" lon="2.64048">
        <ele>1503</ele>
        <time>2020-09-14T16:03:58Z</time>
      </trkpt>
      <trkpt lat="45.11532" lon="2.64048">
        <ele>1503</ele>
        <time>2020-09-14T16:03:58Z</time>
      </trkpt>
      <trkpt lat="45.11533" lon="2.64049">
        <ele>1503</ele>
        <time>2020-09-14T16:04:42Z</time>
      </trkpt>
      <trkpt lat="45.11531" lon="2.64057">
        <ele>1504</ele>
        <time>2020-09-14T16:05:00Z</time>
      </trkpt>
      <trkpt lat="45.11531" lon="2.64057">
        <ele>1504</ele>
        <time>2020-09-14T16:05:00Z</time>
      </trkpt>
      <trkpt lat="45.11531" lon="2.64057">
        <ele>1504</ele>
        <time>2020-09-14T16:05:12Z</time>
      </trkpt>
      <trkpt lat="45.11524" lon="2.64064">
        <ele>1506</ele>
        <time>2020-09-14T16:05:57Z</time>
      </trkpt>
      <trkpt lat="45.11517" lon="2.64072">
        <ele>1511</ele>
        <time>2020-09-14T16:06:14Z</time>
      </trkpt>
      <trkpt lat="45.11512" lon="2.64071">
        <ele>1511</ele>
        <time>2020-09-14T16:06:24Z</time>
      </trkpt>
      <trkpt lat="45.11512" lon="2.64071">
        <ele>1511</ele>
        <time>2020-09-14T16:06:25Z</time>
      </trkpt>
      <trkpt lat="45.1151" lon="2.6407">
        <ele>1516</ele>
        <time>2020-09-14T16:11:28Z</time>
      </trkpt>
      <trkpt lat="45.11501" lon="2.64073">
        <ele>1517</ele>
        <time>2020-09-14T16:11:41Z</time>
      </trkpt>
      <trkpt lat="45.11492" lon="2.64071">
        <ele>1520</ele>
        <time>2020-09-14T16:11:52Z</time>
      </trkpt>
      <trkpt lat="45.11485" lon="2.64077">
        <ele>1526</ele>
        <time>2020-09-14T16:12:12Z</time>
      </trkpt>
      <trkpt lat="45.11481" lon="2.64078">
        <ele>1525</ele>
        <time>2020-09-14T16:12:19Z</time>
      </trkpt>
      <trkpt lat="45.11481" lon="2.64078">
        <ele>1525</ele>
        <time>2020-09-14T16:12:19Z</time>
      </trkpt>
      <trkpt lat="45.11481" lon="2.64079">
        <ele>1525</ele>
        <time>2020-09-14T16:12:59Z</time>
      </trkpt>
      <trkpt lat="45.11473" lon="2.64083">
        <ele>1530</ele>
        <time>2020-09-14T16:13:14Z</time>
      </trkpt>
      <trkpt lat="45.11466" lon="2.64087">
        <ele>1533</ele>
        <time>2020-09-14T16:13:36Z</time>
      </trkpt>
      <trkpt lat="45.11457" lon="2.64091">
        <ele>1538</ele>
        <time>2020-09-14T16:13:53Z</time>
      </trkpt>
      <trkpt lat="45.11449" lon="2.64096">
        <ele>1539</ele>
        <time>2020-09-14T16:14:15Z</time>
      </trkpt>
      <trkpt lat="45.11441" lon="2.64098">
        <ele>1539</ele>
        <time>2020-09-14T16:14:32Z</time>
      </trkpt>
      <trkpt lat="45.11441" lon="2.64098">
        <ele>1539</ele>
        <time>2020-09-14T16:14:33Z</time>
      </trkpt>
      <trkpt lat="45.11441" lon="2.64097">
        <ele>1538</ele>
        <time>2020-09-14T16:15:59Z</time>
      </trkpt>
      <trkpt lat="45.11434" lon="2.64104">
        <ele>1541</ele>
        <time>2020-09-14T16:16:17Z</time>
      </trkpt>
      <trkpt lat="45.11429" lon="2.64113">
        <ele>1544</ele>
        <time>2020-09-14T16:16:39Z</time>
      </trkpt>
      <trkpt lat="45.1142" lon="2.64117">
        <ele>1547</ele>
        <time>2020-09-14T16:16:57Z</time>
      </trkpt>
      <trkpt lat="45.11419" lon="2.64118">
        <ele>1547</ele>
        <time>2020-09-14T16:16:59Z</time>
      </trkpt>
      <trkpt lat="45.11419" lon="2.64118">
        <ele>1547</ele>
        <time>2020-09-14T16:17:00Z</time>
      </trkpt>
      <trkpt lat="45.11418" lon="2.64119">
        <ele>1546</ele>
        <time>2020-09-14T16:18:35Z</time>
      </trkpt>
      <trkpt lat="45.11412" lon="2.64129">
        <ele>1553</ele>
        <time>2020-09-14T16:18:58Z</time>
      </trkpt>
      <trkpt lat="45.11405" lon="2.64134">
        <ele>1552</ele>
        <time>2020-09-14T16:19:12Z</time>
      </trkpt>
      <trkpt lat="45.114" lon="2.64138">
        <ele>1551</ele>
        <time>2020-09-14T16:19:24Z</time>
      </trkpt>
      <trkpt lat="45.114" lon="2.64138">
        <ele>1551</ele>
        <time>2020-09-14T16:19:24Z</time>
      </trkpt>
      <trkpt lat="45.11398" lon="2.64139">
        <ele>1551</ele>
        <time>2020-09-14T16:20:22Z</time>
      </trkpt>
      <trkpt lat="45.11391" lon="2.64146">
        <ele>1552</ele>
        <time>2020-09-14T16:20:33Z</time>
      </trkpt>
      <trkpt lat="45.11385" lon="2.64154">
        <ele>1555</ele>
        <time>2020-09-14T16:20:58Z</time>
      </trkpt>
      <trkpt lat="45.11377" lon="2.6416">
        <ele>1554</ele>
        <time>2020-09-14T16:21:15Z</time>
      </trkpt>
      <trkpt lat="45.11376" lon="2.64161">
        <ele>1554</ele>
        <time>2020-09-14T16:21:16Z</time>
      </trkpt>
      <trkpt lat="45.11376" lon="2.64161">
        <ele>1554</ele>
        <time>2020-09-14T16:21:16Z</time>
      </trkpt>
      <trkpt lat="45.11376" lon="2.6416">
        <ele>1555</ele>
        <time>2020-09-14T16:22:21Z</time>
      </trkpt>
      <trkpt lat="45.11371" lon="2.6417">
        <ele>1558</ele>
        <time>2020-09-14T16:22:40Z</time>
      </trkpt>
      <trkpt lat="45.11366" lon="2.64181">
        <ele>1562</ele>
        <time>2020-09-14T16:22:58Z</time>
      </trkpt>
      <trkpt lat="45.11361" lon="2.64184">
        <ele>1564</ele>
        <time>2020-09-14T16:23:06Z</time>
      </trkpt>
      <trkpt lat="45.11361" lon="2.64184">
        <ele>1564</ele>
        <time>2020-09-14T16:23:06Z</time>
      </trkpt>
      <trkpt lat="45.11361" lon="2.64183">
        <ele>1564</ele>
        <time>2020-09-14T16:23:32Z</time>
      </trkpt>
      <trkpt lat="45.11354" lon="2.64189">
        <ele>1567</ele>
        <time>2020-09-14T16:23:48Z</time>
      </trkpt>
      <trkpt lat="45.11345" lon="2.64189">
        <ele>1571</ele>
        <time>2020-09-14T16:24:02Z</time>
      </trkpt>
      <trkpt lat="45.11336" lon="2.64191">
        <ele>1573</ele>
        <time>2020-09-14T16:24:20Z</time>
      </trkpt>
      <trkpt lat="45.11332" lon="2.64189">
        <ele>1575</ele>
        <time>2020-09-14T16:24:28Z</time>
      </trkpt>
      <trkpt lat="45.11332" lon="2.64189">
        <ele>1575</ele>
        <time>2020-09-14T16:24:28Z</time>
      </trkpt>
      <trkpt lat="45.11334" lon="2.6419">
        <ele>1577</ele>
        <time>2020-09-14T16:29:30Z</time>
      </trkpt>
      <trkpt lat="45.11326" lon="2.64185">
        <ele>1577</ele>
        <time>2020-09-14T16:29:41Z</time>
      </trkpt>
      <trkpt lat="45.11317" lon="2.64184">
        <ele>1578</ele>
        <time>2020-09-14T16:29:52Z</time>
      </trkpt>
      <trkpt lat="45.11311" lon="2.6418">
        <ele>1579</ele>
        <time>2020-09-14T16:30:01Z</time>
      </trkpt>
      <trkpt lat="45.11311" lon="2.6418">
        <ele>1579</ele>
        <time>2020-09-14T16:30:02Z</time>
      </trkpt>
    </trkseg>
  </trk>
</gpx>